createdAt,value
2023-03-02T00:02:15.283Z,12.03
2023-03-02T00:04:46.523Z,11.27
2023-03-02T00:07:19.457Z,13.23
2023-03-02T00:09:46.250Z,14.33
2023-03-02T00:12:13.718Z,11.40
2023-03-02T00:14:40.392Z,10.43
2023-03-02T00:17:08.050Z,11.03
2023-03-02T00:19:34.690Z,10.73
2023-03-02T00:22:01.265Z,11.50
2023-03-02T00:24:27.919Z,12.37
2023-03-02T00:26:54.641Z,12.83
2023-03-02T00:29:21.325Z,12.37
2023-03-02T00:31:48.419Z,12.07
2023-03-02T00:34:15.151Z,12.90
2023-03-02T00:36:42.057Z,12.20
2023-03-02T00:39:08.915Z,12.60
2023-03-02T00:41:35.551Z,11.73
2023-03-02T00:44:02.121Z,12.97
2023-03-02T00:46:28.842Z,14.37
2023-03-02T00:48:55.615Z,14.37
2023-03-02T00:51:22.305Z,11.67
2023-03-02T00:53:48.899Z,13.67
2023-03-02T00:56:15.571Z,13.43
2023-03-02T00:58:47.412Z,12.07
2023-03-02T01:01:15.425Z,13.80
2023-03-02T01:03:46.639Z,11.50
2023-03-02T01:06:20.632Z,11.80
2023-03-02T01:08:47.915Z,12.63
2023-03-02T01:11:17.513Z,14.80
2023-03-02T01:13:44.955Z,14.60
2023-03-02T01:16:12.164Z,12.20
2023-03-02T01:18:39.850Z,13.13
2023-03-02T01:21:13.022Z,13.63
2023-03-02T01:23:39.741Z,13.67
2023-03-02T01:26:07.452Z,11.73
2023-03-02T01:28:34.121Z,13.53
2023-03-02T01:31:02.693Z,12.87
2023-03-02T01:33:30.262Z,12.53
2023-03-02T01:35:56.958Z,12.40
2023-03-02T01:38:23.669Z,12.70
2023-03-02T01:40:50.342Z,13.27
2023-03-02T01:43:17.118Z,11.57
2023-03-02T01:45:54.238Z,12.77
2023-03-02T01:49:02.689Z,13.77
2023-03-02T01:51:43.706Z,12.87
2023-03-02T01:54:22.823Z,12.67
2023-03-02T01:57:01.200Z,14.40
2023-03-02T01:59:31.060Z,12.73
2023-03-02T02:02:00.823Z,14.03
2023-03-02T02:04:30.988Z,12.47
2023-03-02T02:07:03.671Z,13.20
2023-03-02T02:09:33.549Z,12.77
2023-03-02T02:12:00.739Z,14.90
2023-03-02T02:14:27.855Z,11.03
2023-03-02T02:16:55.066Z,12.73
2023-03-02T02:19:40.142Z,12.50
2023-03-02T02:22:09.974Z,11.83
2023-03-02T02:24:44.148Z,12.40
2023-03-02T02:27:12.214Z,12.63
2023-03-02T02:29:47.450Z,12.80
2023-03-02T02:32:21.842Z,14.03
2023-03-02T02:34:59.403Z,12.20
2023-03-02T02:37:34.376Z,11.47
2023-03-02T02:40:07.242Z,11.73
2023-03-02T02:42:39.618Z,12.67
2023-03-02T02:45:17.646Z,11.43
2023-03-02T02:47:44.454Z,12.77
2023-03-02T02:50:19.647Z,13.03
2023-03-02T02:52:52.584Z,13.57
2023-03-02T02:55:22.769Z,13.53
2023-03-02T02:57:54.856Z,13.33
2023-03-02T03:00:23.390Z,13.47
2023-03-02T03:02:58.889Z,11.30
2023-03-02T03:05:25.508Z,12.40
2023-03-02T03:07:52.943Z,12.37
2023-03-02T03:10:22.629Z,12.50
2023-03-02T03:12:50.628Z,10.90
2023-03-02T03:15:19.549Z,11.83
2023-03-02T03:17:59.255Z,14.47
2023-03-02T03:20:28.458Z,13.43
2023-03-02T03:22:55.394Z,13.93
2023-03-02T03:25:25.755Z,14.57
2023-03-02T03:27:54.293Z,13.23
2023-03-02T03:30:22.670Z,13.33
2023-03-02T03:32:49.549Z,11.67
2023-03-02T03:35:16.779Z,14.33
2023-03-02T03:37:43.965Z,12.30
2023-03-02T03:40:11.884Z,11.80
2023-03-02T03:42:42.092Z,12.60
2023-03-02T03:45:09.244Z,12.00
2023-03-02T03:47:37.101Z,11.03
2023-03-02T03:50:05.753Z,11.17
2023-03-02T03:52:33.042Z,11.77
2023-03-02T03:55:07.999Z,14.00
2023-03-02T03:57:34.971Z,12.80
2023-03-02T04:00:01.740Z,10.70
2023-03-02T04:02:28.394Z,12.63
2023-03-02T04:04:55.049Z,11.80
2023-03-02T04:07:22.072Z,11.73
2023-03-02T04:09:48.725Z,12.00
2023-03-02T04:12:15.839Z,11.13
2023-03-02T04:14:52.183Z,14.10
2023-03-02T04:17:28.298Z,11.60
2023-03-02T04:19:55.138Z,10.97
2023-03-02T04:22:22.210Z,13.87
2023-03-02T04:24:49.787Z,12.97
2023-03-02T04:27:17.301Z,10.87
2023-03-02T04:29:44.880Z,12.70
2023-03-02T04:32:14.857Z,12.57
2023-03-02T04:34:43.243Z,13.30
2023-03-02T04:37:10.462Z,11.10
2023-03-02T04:39:37.072Z,11.13
2023-03-02T04:42:03.769Z,11.13
2023-03-02T04:44:30.364Z,12.27
2023-03-02T04:46:57.115Z,12.20
2023-03-02T04:49:24.033Z,12.83
2023-03-02T04:51:50.905Z,11.13
2023-03-02T04:54:23.883Z,11.67
2023-03-02T04:56:51.695Z,12.77
2023-03-02T04:59:22.354Z,11.57
2023-03-02T05:01:49.140Z,12.07
2023-03-02T05:04:16.522Z,11.40
2023-03-02T05:06:43.266Z,12.23
2023-03-02T05:09:10.193Z,13.20
2023-03-02T05:11:37.724Z,11.23
2023-03-02T05:14:07.047Z,10.57
2023-03-02T05:16:36.070Z,11.27
2023-03-02T05:19:05.309Z,12.70
2023-03-02T05:21:31.986Z,9.87
2023-03-02T05:23:58.637Z,12.43
2023-03-02T05:26:25.221Z,13.10
2023-03-02T05:28:53.944Z,12.23
2023-03-02T05:31:39.907Z,11.97
2023-03-02T05:34:09.319Z,12.73
2023-03-02T05:36:36.386Z,12.97
2023-03-02T05:39:05.291Z,13.20
2023-03-02T05:41:31.954Z,11.33
2023-03-02T05:43:58.844Z,13.07
2023-03-02T05:46:26.245Z,11.63
2023-03-02T05:48:53.200Z,13.27
2023-03-02T05:51:19.882Z,12.27
2023-03-02T05:53:46.695Z,12.03
2023-03-02T05:56:13.296Z,13.50
2023-03-02T05:58:39.930Z,11.43
2023-03-02T06:01:12.669Z,13.50
2023-03-02T06:03:41.399Z,12.23
2023-03-02T06:06:08.042Z,12.63
2023-03-02T06:08:34.684Z,13.57
2023-03-02T06:11:01.319Z,12.23
2023-03-02T06:13:28.002Z,12.77
2023-03-02T06:15:54.558Z,12.10
2023-03-02T06:18:21.228Z,13.40
2023-03-02T06:20:49.853Z,12.13
2023-03-02T06:23:17.057Z,12.20
2023-03-02T06:25:48.585Z,11.30
2023-03-02T06:28:16.408Z,12.40
2023-03-02T06:30:43.011Z,11.40
2023-03-02T06:33:09.852Z,11.83
2023-03-02T06:35:36.619Z,10.67
2023-03-02T06:38:03.324Z,11.83
2023-03-02T06:40:30.320Z,11.37
2023-03-02T06:42:56.969Z,11.13
2023-03-02T06:45:23.683Z,12.17
2023-03-02T06:47:50.279Z,11.73
2023-03-02T06:50:16.922Z,11.67
2023-03-02T06:52:43.532Z,11.27
2023-03-02T06:55:10.457Z,15.67
2023-03-02T06:57:37.273Z,11.63
2023-03-02T07:00:11.534Z,12.53
2023-03-02T07:02:38.123Z,14.00
2023-03-02T07:05:06.434Z,11.20
2023-03-02T07:07:33.065Z,10.83
2023-03-02T07:09:59.725Z,12.43
2023-03-02T07:12:26.400Z,12.63
2023-03-02T07:14:53.142Z,11.60
2023-03-02T07:17:23.939Z,10.47
2023-03-02T07:19:50.943Z,11.20
2023-03-02T07:22:17.542Z,11.03
2023-03-02T07:24:45.074Z,12.17
2023-03-02T07:27:12.110Z,12.90
2023-03-02T07:29:38.720Z,12.30
2023-03-02T07:32:06.918Z,10.00
2023-03-02T07:34:33.584Z,10.17
2023-03-02T07:37:00.181Z,10.70
2023-03-02T07:39:26.820Z,12.83
2023-03-02T07:41:53.372Z,11.77
2023-03-02T07:44:21.506Z,12.03
2023-03-02T07:46:48.130Z,13.97
2023-03-02T07:49:14.854Z,12.27
2023-03-02T07:51:41.480Z,12.60
2023-03-02T07:54:08.693Z,11.83
2023-03-02T07:56:35.353Z,11.37
2023-03-02T07:59:01.936Z,12.03
2023-03-02T08:01:28.646Z,11.83
2023-03-02T08:03:55.258Z,9.70
2023-03-02T08:06:21.995Z,11.60
2023-03-02T08:08:48.593Z,11.77
2023-03-02T08:11:17.445Z,16.00
2023-03-02T08:13:45.147Z,11.27
2023-03-02T08:16:13.691Z,11.50
2023-03-02T08:18:41.034Z,11.17
2023-03-02T08:21:12.484Z,11.10
2023-03-02T08:23:39.205Z,13.47
2023-03-02T08:26:05.847Z,9.77
2023-03-02T08:28:33.337Z,9.83
2023-03-02T08:31:02.843Z,13.03
2023-03-02T08:33:30.865Z,11.37
2023-03-02T08:36:01.843Z,12.00
2023-03-02T08:38:29.542Z,11.63
2023-03-02T08:40:56.234Z,10.83
2023-03-02T08:43:24.780Z,11.47
2023-03-02T08:45:57.941Z,13.13
2023-03-02T08:48:26.659Z,11.67
2023-03-02T08:51:02.100Z,12.07
2023-03-02T08:53:30.787Z,11.70
2023-03-02T08:55:57.473Z,11.47
2023-03-02T08:58:24.516Z,11.37
2023-03-02T09:00:51.586Z,12.53
2023-03-02T09:03:18.243Z,12.47
2023-03-02T09:05:45.095Z,12.47
2023-03-02T09:08:12.313Z,11.07
2023-03-02T09:10:39.532Z,11.83
2023-03-02T09:13:08.458Z,11.93
2023-03-02T09:15:35.492Z,11.33
2023-03-02T09:18:02.207Z,14.73
2023-03-02T09:20:28.805Z,13.47
2023-03-02T09:22:55.423Z,9.90
2023-03-02T09:25:22.182Z,12.10
2023-03-02T09:27:48.825Z,12.30
2023-03-02T09:30:15.942Z,12.20
2023-03-02T09:32:42.760Z,13.57
2023-03-02T09:35:09.723Z,12.70
2023-03-02T09:37:38.823Z,12.50
2023-03-02T09:40:16.366Z,13.90
2023-03-02T09:43:09.901Z,12.77
2023-03-02T09:46:07.571Z,12.20
2023-03-02T09:49:04.989Z,12.73
2023-03-02T09:51:33.900Z,12.53
2023-03-02T09:54:10.029Z,13.27
2023-03-02T09:56:42.564Z,10.33
2023-03-02T09:59:18.204Z,11.73
2023-03-02T10:02:08.780Z,10.53
2023-03-02T10:04:56.223Z,12.70
2023-03-02T10:07:27.269Z,11.30
2023-03-02T10:09:55.826Z,12.43
2023-03-02T10:12:43.262Z,13.07
2023-03-02T10:15:19.022Z,11.97
2023-03-02T10:18:05.125Z,11.80
2023-03-02T10:20:42.948Z,10.97
2023-03-02T10:23:15.504Z,11.13
2023-03-02T10:25:50.609Z,13.00
2023-03-02T10:28:24.143Z,12.57
2023-03-02T10:31:09.109Z,11.13
2023-03-02T10:33:39.112Z,12.87
2023-03-02T10:36:20.475Z,14.30
2023-03-02T10:38:47.789Z,12.00
2023-03-02T10:41:24.552Z,12.67
2023-03-02T10:43:54.151Z,14.27
2023-03-02T10:46:20.856Z,15.60
2023-03-02T10:48:51.416Z,11.17
2023-03-02T10:51:30.234Z,11.90
2023-03-02T10:54:23.600Z,14.77
2023-03-02T10:56:53.273Z,13.70
2023-03-02T10:59:28.934Z,12.60
2023-03-02T11:02:14.022Z,12.00
2023-03-02T11:04:40.773Z,12.53
2023-03-02T11:07:15.460Z,12.60
2023-03-02T11:09:42.042Z,13.63
2023-03-02T11:12:16.358Z,12.67
2023-03-02T11:14:43.357Z,14.37
2023-03-02T11:17:31.265Z,13.20
2023-03-02T11:19:57.895Z,13.70
2023-03-02T11:23:01.267Z,13.03
2023-03-02T11:25:40.534Z,11.73
2023-03-02T11:28:30.382Z,12.23
2023-03-02T11:30:59.871Z,12.37
2023-03-02T11:34:23.432Z,13.83
2023-03-02T11:37:02.470Z,10.77
2023-03-02T11:39:54.635Z,12.17
2023-03-02T11:42:27.800Z,11.87
2023-03-02T11:44:55.015Z,13.90
2023-03-02T11:47:22.648Z,12.23
2023-03-02T11:49:58.429Z,12.23
2023-03-02T11:52:28.515Z,12.57
2023-03-02T11:55:00.165Z,11.73
2023-03-02T11:57:35.203Z,12.50
2023-03-02T12:00:03.486Z,11.83
2023-03-02T12:02:39.027Z,13.30
2023-03-02T12:05:22.303Z,11.43
2023-03-02T12:08:00.450Z,11.97
2023-03-02T12:10:35.888Z,13.97
2023-03-02T12:13:18.646Z,13.23
2023-03-02T12:15:47.422Z,12.00
2023-03-02T12:18:23.101Z,12.90
2023-03-02T12:21:09.420Z,12.90
2023-03-02T12:23:53.071Z,13.80
2023-03-02T12:26:19.615Z,12.70
2023-03-02T12:29:10.786Z,12.13
2023-03-02T12:31:47.730Z,11.33
2023-03-02T12:34:32.383Z,12.37
2023-03-02T12:37:04.477Z,11.37
2023-03-02T12:39:39.570Z,12.13
2023-03-02T12:42:30.746Z,12.30
2023-03-02T12:45:15.884Z,10.53
2023-03-02T12:47:49.587Z,11.70
2023-03-02T12:50:20.531Z,13.57
2023-03-02T12:53:03.310Z,11.83
2023-03-02T12:55:30.473Z,12.97
2023-03-02T12:58:01.249Z,11.23
2023-03-02T13:00:31.004Z,8.77
2023-03-02T13:02:59.368Z,10.80
2023-03-02T13:05:30.264Z,13.57
2023-03-02T13:08:01.130Z,13.03
2023-03-02T13:10:36.065Z,11.60
2023-03-02T13:13:15.544Z,10.00
2023-03-02T13:15:52.500Z,10.80
2023-03-02T13:18:21.331Z,10.47
2023-03-02T13:20:49.509Z,10.27
2023-03-02T13:23:17.765Z,10.03
2023-03-02T13:25:55.549Z,12.10
2023-03-02T13:28:27.619Z,11.40
2023-03-02T13:31:21.723Z,10.27
2023-03-02T13:33:50.640Z,11.40
2023-03-02T13:36:29.436Z,11.23
2023-03-02T13:38:59.328Z,9.90
2023-03-02T13:41:31.294Z,9.80
2023-03-02T13:43:59.413Z,8.27
2023-03-02T13:46:35.681Z,9.50
2023-03-02T13:49:10.837Z,11.07
2023-03-02T13:51:41.404Z,9.47
2023-03-02T13:54:28.349Z,9.90
2023-03-02T13:56:58.557Z,9.13
2023-03-02T13:59:25.440Z,9.77
2023-03-02T14:01:52.078Z,8.60
2023-03-02T14:04:24.310Z,9.37
2023-03-02T14:06:52.407Z,10.60
2023-03-02T14:09:19.213Z,8.80
2023-03-02T14:11:52.657Z,11.20
2023-03-02T14:14:22.735Z,10.07
2023-03-02T14:16:49.815Z,10.00
2023-03-02T14:19:18.391Z,10.33
2023-03-02T14:21:46.503Z,10.60
2023-03-02T14:24:13.384Z,9.33
2023-03-02T14:26:46.356Z,7.13
2023-03-02T14:29:18.789Z,10.37
2023-03-02T14:31:45.381Z,8.70
2023-03-02T14:34:16.502Z,12.05
2023-03-02T14:36:46.182Z,9.37
2023-03-02T14:39:23.102Z,11.60
2023-03-02T14:41:53.858Z,7.75
2023-03-02T14:44:21.900Z,11.15
2023-03-02T14:46:48.682Z,9.83
2023-03-02T14:49:15.396Z,8.32
2023-03-02T14:51:45.556Z,10.73
2023-03-02T14:54:18.243Z,8.73
2023-03-02T14:56:45.450Z,10.38
2023-03-02T14:59:15.624Z,13.15
2023-03-02T15:01:44.555Z,9.40
2023-03-02T15:04:11.609Z,6.97
2023-03-02T15:06:41.241Z,7.28
2023-03-02T15:09:08.460Z,8.00
2023-03-02T15:11:35.648Z,9.25
2023-03-02T15:14:02.498Z,9.50
2023-03-02T15:16:29.239Z,9.00
2023-03-02T15:18:58.725Z,10.53
2023-03-02T15:21:26.464Z,12.77
2023-03-02T15:23:53.212Z,9.40
2023-03-02T15:26:19.886Z,7.47
2023-03-02T15:28:50.045Z,9.20
2023-03-02T15:31:17.935Z,7.97
2023-03-02T15:33:47.898Z,7.20
2023-03-02T15:36:14.660Z,8.77
2023-03-02T15:38:41.591Z,7.47
2023-03-02T15:41:12.348Z,9.13
2023-03-02T15:43:39.506Z,9.33
2023-03-02T15:46:09.166Z,9.57
2023-03-02T15:48:37.138Z,8.57
2023-03-02T15:51:06.379Z,7.63
2023-03-02T15:53:38.228Z,8.45
2023-03-02T15:56:09.433Z,5.53
2023-03-02T15:58:36.390Z,6.43
2023-03-02T16:01:11.749Z,6.83
2023-03-02T16:03:38.546Z,9.40
2023-03-02T16:06:05.418Z,7.37
2023-03-02T16:08:32.017Z,7.97
2023-03-02T16:11:00.139Z,7.32
2023-03-02T16:13:27.522Z,10.80
2023-03-02T16:15:54.146Z,9.43
2023-03-02T16:18:20.816Z,9.10
2023-03-02T16:20:47.774Z,9.03
2023-03-02T16:23:15.982Z,9.73
2023-03-02T16:25:43.804Z,8.00
2023-03-02T16:28:13.566Z,7.68
2023-03-02T16:30:41.428Z,6.93
2023-03-02T16:33:13.283Z,8.23
2023-03-02T16:35:41.055Z,9.90
2023-03-02T16:38:10.956Z,9.83
2023-03-02T16:40:40.583Z,7.67
2023-03-02T16:43:11.507Z,9.33
2023-03-02T16:45:38.686Z,8.70
2023-03-02T16:48:06.364Z,8.63
2023-03-02T16:50:33.860Z,8.53
2023-03-02T16:53:01.168Z,11.10
2023-03-02T16:55:28.455Z,10.60
2023-03-02T16:57:55.688Z,8.80
2023-03-02T17:00:23.492Z,6.87
2023-03-02T17:02:50.637Z,10.00
2023-03-02T17:05:19.292Z,7.70
2023-03-02T17:07:45.934Z,9.73
2023-03-02T17:10:18.909Z,10.83
2023-03-02T17:12:45.618Z,9.83
2023-03-02T17:15:13.998Z,7.20
2023-03-02T17:17:41.513Z,10.47
2023-03-02T17:20:11.722Z,7.80
2023-03-02T17:22:38.585Z,8.40
2023-03-02T17:25:05.753Z,10.27
2023-03-02T17:27:32.433Z,9.57
2023-03-02T17:29:59.334Z,7.67
2023-03-02T17:32:26.012Z,7.90
2023-03-02T17:34:52.620Z,12.53
2023-03-02T17:37:19.316Z,14.63
2023-03-02T17:39:45.995Z,8.63
2023-03-02T17:42:12.590Z,7.60
2023-03-02T17:44:40.542Z,9.73
2023-03-02T17:47:08.377Z,7.87
2023-03-02T17:49:45.219Z,9.23
2023-03-02T17:52:13.459Z,8.30
2023-03-02T17:54:40.500Z,8.00
2023-03-02T17:57:07.920Z,9.30
2023-03-02T17:59:34.718Z,11.27
2023-03-02T18:02:01.433Z,7.17
2023-03-02T18:04:28.181Z,6.87
2023-03-02T18:06:54.840Z,7.27
2023-03-02T18:09:21.755Z,8.30
2023-03-02T18:11:48.638Z,10.57
2023-03-02T18:14:17.292Z,9.93
2023-03-02T18:16:44.661Z,7.90
2023-03-02T18:19:11.772Z,7.93
2023-03-02T18:21:40.223Z,7.50
2023-03-02T18:24:07.689Z,7.77
2023-03-02T18:26:34.335Z,10.67
2023-03-02T18:29:00.864Z,9.17
2023-03-02T18:31:28.429Z,7.17
2023-03-02T18:33:55.205Z,7.20
2023-03-02T18:36:21.796Z,8.57
2023-03-02T18:38:48.391Z,8.80
2023-03-02T18:41:15.055Z,8.93
2023-03-02T18:43:42.201Z,11.27
2023-03-02T18:46:18.135Z,11.57
2023-03-02T18:48:45.662Z,6.93
2023-03-02T18:51:12.568Z,10.50
2023-03-02T18:53:39.757Z,6.97
2023-03-02T18:56:08.566Z,10.87
2023-03-02T18:58:35.314Z,6.60
2023-03-02T19:01:03.037Z,5.23
2023-03-02T19:03:30.274Z,7.73
2023-03-02T19:05:58.272Z,6.33
2023-03-02T19:08:25.654Z,6.63
2023-03-02T19:10:54.617Z,7.73
2023-03-02T19:13:21.725Z,6.50
2023-03-02T19:15:48.968Z,6.73
2023-03-02T19:18:17.918Z,6.83
2023-03-02T19:20:49.451Z,6.20
2023-03-02T19:23:17.554Z,6.13
2023-03-02T19:25:45.102Z,4.77
2023-03-02T19:28:12.677Z,5.77
2023-03-02T19:30:40.331Z,5.60
2023-03-02T19:33:09.541Z,5.33
2023-03-02T19:35:38.373Z,6.47
2023-03-02T19:38:06.298Z,4.33
2023-03-02T19:40:34.644Z,8.80
2023-03-02T19:43:01.795Z,5.30
2023-03-02T19:45:32.461Z,5.80
2023-03-02T19:48:01.362Z,5.50
2023-03-02T19:50:28.249Z,5.50
2023-03-02T19:52:55.465Z,7.57
2023-03-02T19:55:24.343Z,5.40
2023-03-02T19:57:59.617Z,5.27
2023-03-02T20:00:29.513Z,5.60
2023-03-02T20:02:58.016Z,6.97
2023-03-02T20:05:27.702Z,6.37
2023-03-02T20:07:56.098Z,4.97
2023-03-02T20:10:33.975Z,5.97
2023-03-02T20:13:01.604Z,6.37
2023-03-02T20:15:31.703Z,5.47
2023-03-02T20:18:02.632Z,5.13
2023-03-02T20:20:30.889Z,5.57
2023-03-02T20:22:57.804Z,4.83
2023-03-02T20:25:25.274Z,5.57
2023-03-02T20:27:52.963Z,5.63
2023-03-02T20:30:48.102Z,5.23
2023-03-02T20:33:15.283Z,4.33
2023-03-02T20:35:44.275Z,6.47
2023-03-02T20:38:23.485Z,5.60
2023-03-02T20:40:51.152Z,4.50
2023-03-02T20:43:18.179Z,4.77
2023-03-02T20:45:45.429Z,9.10
2023-03-02T20:48:13.581Z,5.37
2023-03-02T20:50:41.339Z,6.53
2023-03-02T20:53:11.588Z,4.70
2023-03-02T20:55:39.004Z,4.70
2023-03-02T20:58:05.751Z,6.00
2023-03-02T21:00:34.516Z,6.20
2023-03-02T21:03:01.256Z,5.00
2023-03-02T21:05:29.622Z,4.40
2023-03-02T21:07:57.787Z,6.10
2023-03-02T21:10:29.688Z,4.90
2023-03-02T21:12:56.908Z,6.50
2023-03-02T21:15:27.110Z,5.10
2023-03-02T21:17:55.567Z,6.17
2023-03-02T21:20:24.359Z,5.73
2023-03-02T21:22:51.180Z,4.43
2023-03-02T21:25:20.171Z,5.97
2023-03-02T21:27:46.912Z,5.97
2023-03-02T21:30:20.410Z,5.73
2023-03-02T21:32:48.622Z,5.37
2023-03-02T21:35:18.236Z,5.67
2023-03-02T21:37:44.978Z,7.20
2023-03-02T21:40:26.599Z,6.33
2023-03-02T21:42:53.905Z,5.67
2023-03-02T21:45:22.779Z,6.00
2023-03-02T21:47:51.047Z,5.17
2023-03-02T21:50:23.047Z,5.10
2023-03-02T21:52:49.702Z,5.73
2023-03-02T21:55:16.540Z,6.07
2023-03-02T21:57:43.733Z,5.40
2023-03-02T22:00:19.951Z,7.13
2023-03-02T22:02:47.511Z,6.70
2023-03-02T22:05:14.326Z,6.40
2023-03-02T22:07:40.975Z,4.47
2023-03-02T22:10:15.454Z,5.57
2023-03-02T22:12:44.516Z,6.23
2023-03-02T22:15:14.523Z,5.83
2023-03-02T22:17:42.279Z,5.10
2023-03-02T22:20:19.883Z,7.10
2023-03-02T22:22:49.676Z,5.10
2023-03-02T22:25:18.296Z,5.13
2023-03-02T22:27:46.547Z,6.77
2023-03-02T22:30:20.072Z,7.93
2023-03-02T22:32:47.637Z,5.70
2023-03-02T22:35:23.481Z,7.30
2023-03-02T22:37:51.998Z,6.80
2023-03-02T22:40:36.815Z,7.13
2023-03-02T22:43:15.497Z,6.53
2023-03-02T22:45:42.399Z,6.50
2023-03-02T22:48:18.635Z,7.70
2023-03-02T22:50:47.011Z,6.83
2023-03-02T22:53:31.598Z,6.83
2023-03-02T22:56:03.575Z,11.60
2023-03-02T22:58:42.718Z,10.47
2023-03-02T23:01:37.075Z,8.23
2023-03-02T23:04:12.823Z,8.77
2023-03-02T23:06:53.774Z,9.53
2023-03-02T23:09:24.344Z,7.93
2023-03-02T23:11:51.674Z,8.03
2023-03-02T23:14:28.357Z,7.73
2023-03-02T23:17:23.444Z,7.10
2023-03-02T23:19:51.306Z,8.47
2023-03-02T23:22:18.945Z,6.57
2023-03-02T23:24:47.593Z,7.77
2023-03-02T23:27:14.257Z,9.43
2023-03-02T23:29:41.013Z,8.37
2023-03-02T23:32:07.744Z,10.83
2023-03-02T23:34:34.433Z,8.53
2023-03-02T23:37:01.046Z,7.67
2023-03-02T23:39:27.820Z,8.17
2023-03-02T23:41:54.946Z,9.63
2023-03-02T23:44:21.786Z,9.93
2023-03-02T23:46:49.297Z,10.03
2023-03-02T23:49:16.241Z,9.97
2023-03-02T23:51:43.476Z,8.97
2023-03-02T23:54:10.612Z,9.07
2023-03-02T23:56:37.327Z,9.03
2023-03-02T23:59:04.702Z,10.97
